Time;durP1;ratioP1;P1;durP2;ratioP2;P2;SDS_P1;SDS_P2;PMS_P1;PMS_P2;Temp;Humidity;BMP_temperature;BMP_pressure;BME280_temperature;BME280_humidity;BME280_pressure;Samples;Min_cycle;Max_cycle;Signal;HPM_P1;HPM_P2
2023/10/08 00:01:06;;;;;;;2.25;0.88;;;;;;;-146.25;100.00;52378.34;2105717;28;31591;-66
2023/10/08 00:02:08;;;;;;;1.50;0.65;;;;;;;-146.25;100.00;52422.94;2111643;28;31187;-66
2023/10/08 00:03:10;;;;;;;1.73;0.93;;;;;;;-146.25;100.00;52392.53;2104578;28;38508;-66
2023/10/08 00:04:18;;;;;;;1.75;0.80;;;;;;;-146.25;100.00;52410.78;2105201;28;20378;-66
2023/10/08 00:05:22;;;;;;;4.40;1.42;;;;;;;-146.25;100.00;52392.53;2104954;28;29626;-67
2023/10/08 00:06:26;;;;;;;3.03;0.93;;;;;;;-146.25;100.00;52416.84;2105731;28;35975;-67
2023/10/08 00:07:29;;;;;;;5.95;0.98;;;;;;;-146.25;100.00;52429.03;2104888;28;32257;-67
2023/10/08 00:08:31;;;;;;;1.77;1.00;;;;;;;-146.25;100.00;52418.88;2104490;28;38407;-67
2023/10/08 00:09:35;;;;;;;1.92;1.13;;;;;;;-146.25;100.00;52412.81;2104855;28;35370;-67
2023/10/08 00:10:44;;;;;;;1.35;0.85;;;;;;;-146.25;100.00;52400.63;2104235;28;30575;-67
2023/10/08 00:11:51;;;;;;;2.42;1.00;;;;;;;-146.25;100.00;52402.66;2104574;28;37047;-67
2023/10/08 00:12:53;;;;;;;2.20;1.25;;;;;;;-146.25;100.00;52431.06;2105141;28;31645;-66
2023/10/08 00:13:56;;;;;;;2.47;1.20;;;;;;;-146.25;100.00;52416.84;2104658;28;33917;-66
2023/10/08 00:14:59;;;;;;;2.10;1.17;;;;;;;-146.25;100.00;52388.47;2104964;28;29449;-66
2023/10/08 00:16:01;;;;;;;2.30;0.90;;;;;;;-146.25;100.00;52384.41;2104953;28;20167;-67
2023/10/08 00:17:10;;;;;;;2.85;1.63;;;;;;;-146.25;100.00;52396.59;2104288;28;38093;-67
2023/10/08 00:18:14;;;;;;;2.85;1.55;;;;;;;-146.25;100.00;52396.59;2103976;28;40401;-66
2023/10/08 00:19:18;;;;;;;3.15;1.60;;;;;;;-146.25;100.00;52382.38;2096404;28;31273;-65
2023/10/08 00:20:28;;;;;;;3.78;1.95;;;;;;;-146.25;100.00;52420.91;2105111;28;34867;-65
2023/10/08 00:21:33;;;;;;;3.17;1.95;;;;;;;-146.25;100.00;52372.25;2112369;28;20032;-65
2023/10/08 00:22:35;;;;;;;4.32;1.85;;;;;;;-146.25;100.00;52388.47;2105212;28;36558;-65
2023/10/08 00:23:41;;;;;;;2.53;1.83;;;;;;;-146.25;100.00;52406.72;2104179;28;38283;-65
2023/10/08 00:24:46;;;;;;;2.80;1.83;;;;;;;-146.25;100.00;52392.53;2105263;28;20148;-65
2023/10/08 00:25:50;;;;;;;2.83;2.13;;;;;;;-146.25;100.00;52445.25;2105406;28;33387;-65
2023/10/08 00:26:54;;;;;;;3.22;1.73;;;;;;;-146.25;100.00;52416.84;2105548;28;20029;-65
2023/10/08 00:27:56;;;;;;;3.92;2.17;;;;;;;-146.25;100.00;52376.31;2104529;28;37922;-65
2023/10/08 00:29:21;;;;;;;4.43;1.67;;;;;;;-146.25;100.00;52382.38;2104599;28;26164;-65
2023/10/08 00:30:23;;;;;;;4.65;2.63;;;;;;;-146.25;100.00;52416.84;2105307;28;20398;-66
2023/10/08 00:31:47;;;;;;;4.38;2.35;;;;;;;-146.25;100.00;52380.38;2104704;28;34783;-64
2023/10/08 00:32:47;;;;;;;2.35;1.67;;;;;;;-146.25;100.00;52418.88;2104824;28;25854;-66
2023/10/08 00:33:49;;;;;;;4.60;2.08;;;;;;;-146.25;100.00;52420.91;2105840;28;27731;-64
2023/10/08 00:34:54;;;;;;;2.78;2.15;;;;;;;-146.25;100.00;52416.84;2113041;28;20127;-64
2023/10/08 00:35:56;;;;;;;7.10;2.67;;;;;;;-146.25;100.00;52400.63;2113233;28;29534;-65
2023/10/08 00:36:58;;;;;;;3.65;2.03;;;;;;;-146.25;100.00;52374.28;2113726;28;20036;-65
2023/10/08 00:38:00;;;;;;;4.90;2.50;;;;;;;-146.25;100.00;52400.63;2104439;28;20697;-65
2023/10/08 00:39:10;;;;;;;5.38;2.72;;;;;;;-146.25;100.00;52416.84;2104113;28;32575;-63
2023/10/08 00:40:13;;;;;;;5.22;2.10;;;;;;;-146.25;100.00;52408.75;2104551;28;27196;-65
2023/10/08 00:41:15;;;;;;;4.18;2.60;;;;;;;-146.25;100.00;52408.75;2096637;28;20167;-65
2023/10/08 00:42:18;;;;;;;3.92;2.20;;;;;;;-146.25;100.00;52390.50;2104864;28;23721;-65
2023/10/08 00:43:33;;;;;;;3.70;2.28;;;;;;;-146.25;100.00;52396.59;2104561;28;27595;-64
2023/10/08 00:44:51;;;;;;;4.80;3.10;;;;;;;-146.25;100.00;52388.47;2104528;28;30468;-64
2023/10/08 00:45:53;;;;;;;5.80;3.17;;;;;;;-146.25;100.00;52388.47;2104689;28;24952;-66
2023/10/08 00:47:00;;;;;;;4.60;3.20;;;;;;;-146.25;100.00;52410.78;2105520;28;25150;-64
2023/10/08 00:48:06;;;;;;;5.03;3.30;;;;;;;-146.25;100.00;52394.56;2113701;28;20040;-64
2023/10/08 00:49:24;;;;;;;5.15;3.00;;;;;;;-146.25;100.00;52414.84;2096452;28;32020;-65
2023/10/08 00:50:42;;;;;;;7.10;3.33;;;;;;;-146.25;100.00;52439.16;2101209;28;21666;-64
2023/10/08 00:51:45;;;;;;;5.65;3.17;;;;;;;-146.25;100.00;52392.53;2104756;28;26089;-64
2023/10/08 00:53:00;;;;;;;6.07;3.47;;;;;;;-146.25;100.00;52420.91;2104774;28;26498;-64
2023/10/08 00:54:07;;;;;;;4.68;3.08;;;;;;;-146.25;100.00;52380.38;2112848;28;20903;-64
2023/10/08 00:55:10;;;;;;;6.13;3.25;;;;;;;-146.25;100.00;52418.88;2104894;28;29265;-67
2023/10/08 00:56:19;;;;;;;6.53;3.72;;;;;;;-146.25;100.00;52398.59;2096691;28;22574;-63
2023/10/08 00:57:25;;;;;;;6.95;4.25;;;;;;;-146.25;100.00;52392.53;2097309;28;27000;-64
2023/10/08 00:58:27;;;;;;;7.95;4.20;;;;;;;-146.25;100.00;52424.97;2096811;28;27754;-63
2023/10/08 00:59:33;;;;;;;9.70;4.57;;;;;;;-146.25;100.00;52400.63;2104437;28;30978;-64
2023/10/08 01:00:40;;;;;;;7.53;4.35;;;;;;;-146.25;100.00;52376.31;2105304;28;28760;-63
2023/10/08 01:01:51;;;;;;;6.93;3.72;;;;;;;-146.25;100.00;52418.88;2104962;28;23551;-64
2023/10/08 01:03:00;;;;;;;5.88;3.25;;;;;;;-146.25;100.00;52416.84;2105857;28;29919;-65
2023/10/08 01:04:06;;;;;;;7.75;3.95;;;;;;;-146.25;100.00;52392.53;2105312;28;20149;-67
2023/10/08 01:05:11;;;;;;;6.43;3.70;;;;;;;-146.25;100.00;52412.81;2105275;28;30326;-65
2023/10/08 01:06:14;;;;;;;7.15;4.40;;;;;;;-146.25;100.00;52402.66;2104779;28;21809;-63
2023/10/08 01:07:18;;;;;;;7.68;4.05;;;;;;;-146.25;100.00;52408.75;2103282;28;30500;-64
2023/10/08 01:08:34;;;;;;;8.52;4.22;;;;;;;-146.25;100.00;52412.81;2096138;28;33589;-64
2023/10/08 01:09:37;;;;;;;6.43;3.50;;;;;;;-146.25;100.00;52380.38;2105006;28;20036;-64
2023/10/08 01:10:43;;;;;;;7.40;4.30;;;;;;;-146.25;100.00;52392.53;2104717;28;33472;-64
2023/10/08 01:11:49;;;;;;;8.05;3.60;;;;;;;-146.25;100.00;52435.09;2096127;28;27260;-64
2023/10/08 01:13:55;;;;;;;9.50;4.30;;;;;;;-146.25;100.00;52380.38;2104950;28;28467;-64
2023/10/08 01:15:04;;;;;;;10.82;5.03;;;;;;;-146.25;100.00;52420.91;2105070;28;20037;-64
2023/10/08 01:16:09;;;;;;;9.23;4.65;;;;;;;-146.25;100.00;52400.63;2104946;28;32311;-64
2023/10/08 01:17:16;;;;;;;8.60;4.30;;;;;;;-146.25;100.00;52406.72;2104855;28;20041;-63
2023/10/08 01:18:30;;;;;;;8.50;4.45;;;;;;;-146.25;100.00;52386.44;2104116;28;31865;-64
2023/10/08 01:19:32;;;;;;;9.50;4.85;;;;;;;-146.25;100.00;52392.53;2104821;28;31920;-63
2023/10/08 01:20:34;;;;;;;10.02;5.05;;;;;;;-146.25;100.00;52416.84;2105351;28;26636;-64
2023/10/08 01:21:39;;;;;;;12.15;5.28;;;;;;;-146.25;100.00;52396.59;2105630;28;20040;-63
2023/10/08 01:22:41;;;;;;;8.55;4.90;;;;;;;-146.25;100.00;52418.88;2104333;28;33974;-64
2023/10/08 01:23:46;;;;;;;10.35;5.15;;;;;;;-146.25;100.00;52392.53;2104114;28;26821;-64
2023/10/08 01:24:49;;;;;;;8.68;4.93;;;;;;;-146.25;100.00;52414.84;2104696;28;29510;-65
2023/10/08 01:26:13;;;;;;;8.20;4.70;;;;;;;-146.25;100.00;52388.47;2104307;28;28281;-64
2023/10/08 01:27:27;;;;;;;9.38;4.90;;;;;;;-146.25;100.00;52420.91;2104901;28;24977;-64
2023/10/08 01:28:29;;;;;;;8.77;4.90;;;;;;;-146.25;100.00;52445.25;2105173;28;30275;-65
2023/10/08 01:29:31;;;;;;;8.95;4.88;;;;;;;-146.25;100.00;52376.31;2112800;28;20048;-64
2023/10/08 01:30:41;;;;;;;9.95;5.15;;;;;;;-146.25;100.00;52400.63;2112423;28;26341;-64
2023/10/08 01:31:42;;;;;;;9.52;4.43;;;;;;;-146.25;100.00;52412.81;2104320;28;23866;-64
2023/10/08 01:32:47;;;;;;;10.00;4.60;;;;;;;-146.25;100.00;52429.03;2104681;28;28680;-64
2023/10/08 01:33:56;;;;;;;11.82;5.47;;;;;;;-146.25;100.00;52412.81;2104642;28;30838;-63
2023/10/08 01:35:00;;;;;;;11.70;5.07;;;;;;;-146.25;100.00;52410.78;2104325;28;30476;-64
2023/10/08 01:36:03;;;;;;;8.30;4.60;;;;;;;-146.25;100.00;52443.22;2104020;28;27583;-64
2023/10/08 01:37:08;;;;;;;8.18;4.53;;;;;;;-146.25;100.00;52396.59;2104949;28;20171;-63
2023/10/08 01:38:13;;;;;;;7.40;3.88;;;;;;;-146.25;100.00;52382.38;2105197;28;27775;-63
2023/10/08 01:39:16;;;;;;;8.45;4.70;;;;;;;-146.25;100.00;52410.78;2104282;28;39040;-63
2023/10/08 01:40:18;;;;;;;7.90;4.30;;;;;;;-146.25;100.00;52400.63;2112263;28;24397;-64
2023/10/08 01:41:29;;;;;;;8.70;4.38;;;;;;;-146.25;100.00;52420.91;2111474;28;33282;-64
2023/10/08 01:42:38;;;;;;;8.75;4.90;;;;;;;-146.25;100.00;52427.00;2105566;28;20082;-63
2023/10/08 01:43:40;;;;;;;9.52;5.10;;;;;;;-146.25;100.00;52402.66;2104364;28;33430;-64
2023/10/08 01:44:54;;;;;;;12.32;5.38;;;;;;;-146.25;100.00;52390.50;2104073;28;27825;-64
2023/10/08 01:46:02;;;;;;;11.00;5.18;;;;;;;-146.25;100.00;52410.78;2104563;28;22205;-63
2023/10/08 01:47:06;;;;;;;9.88;4.88;;;;;;;-146.25;100.00;52408.75;2105173;28;26615;-63
2023/10/08 01:48:11;;;;;;;7.95;4.50;;;;;;;-146.25;100.00;52372.25;2105162;28;20168;-64
2023/10/08 01:49:15;;;;;;;9.60;4.78;;;;;;;-146.25;100.00;52408.75;2105544;28;20851;-65
2023/10/08 01:50:22;;;;;;;11.35;5.25;;;;;;;-146.25;100.00;52410.78;2104395;28;31324;-64
2023/10/08 01:51:25;;;;;;;7.63;4.07;;;;;;;-146.25;100.00;52408.75;2105576;28;20864;-63
2023/10/08 01:52:29;;;;;;;9.13;4.30;;;;;;;-146.25;100.00;52382.38;2104041;28;30872;-64
2023/10/08 01:53:31;;;;;;;7.30;3.95;;;;;;;-146.25;100.00;52429.03;2095627;28;31422;-64
2023/10/08 01:54:35;;;;;;;10.27;4.43;;;;;;;-146.25;100.00;52422.94;2095924;28;30851;-64
2023/10/08 01:55:53;;;;;;;13.48;4.95;;;;;;;-146.25;100.00;52416.84;2105336;28;20163;-64
2023/10/08 01:57:17;;;;;;;8.85;3.75;;;;;;;-146.25;100.00;52408.75;2104231;28;20072;-64
2023/10/08 01:58:22;;;;;;;8.25;4.43;;;;;;;-146.25;100.00;52422.94;2104869;28;20068;-63
2023/10/08 01:59:25;;;;;;;8.23;4.32;;;;;;;-146.25;100.00;52394.56;2096322;28;20150;-63
2023/10/08 02:00:27;;;;;;;9.40;4.47;;;;;;;-146.25;100.00;52394.56;2087962;28;20091;-63
2023/10/08 02:01:29;;;;;;;10.52;4.82;;;;;;;-146.25;100.00;52386.44;2104344;28;29425;-64
2023/10/08 02:02:31;;;;;;;10.38;5.18;;;;;;;-146.25;100.00;52424.97;2104192;28;20041;-64
2023/10/08 02:03:33;;;;;;;11.63;4.90;;;;;;;-146.25;100.00;52382.38;2104109;28;25191;-64
2023/10/08 02:04:36;;;;;;;10.00;4.97;;;;;;;-146.25;100.00;52388.47;2104608;28;30207;-64
2023/10/08 02:05:42;;;;;;;9.13;4.30;;;;;;;-146.25;100.00;52388.47;2095472;28;27304;-64
2023/10/08 02:06:45;;;;;;;9.82;4.40;;;;;;;-146.25;100.00;52402.66;2096632;28;23122;-64
2023/10/08 02:07:48;;;;;;;10.23;4.55;;;;;;;-146.25;100.00;52422.94;2104565;28;29621;-64
2023/10/08 02:08:49;;;;;;;8.95;4.72;;;;;;;-146.25;100.00;52429.03;2104435;28;20075;-64
2023/10/08 02:09:52;;;;;;;9.52;5.00;;;;;;;-146.25;100.00;52400.63;2104594;28;20923;-64
2023/10/08 02:10:54;;;;;;;8.13;4.40;;;;;;;-146.25;100.00;52433.06;2104358;28;20959;-64
2023/10/08 02:11:56;;;;;;;8.88;4.28;;;;;;;-146.25;100.00;52422.94;2104778;28;30050;-64
2023/10/08 02:12:59;;;;;;;8.77;4.32;;;;;;;-146.25;100.00;52388.47;2111949;28;24305;-64
2023/10/08 02:14:02;;;;;;;8.88;4.30;;;;;;;-146.25;100.00;52424.97;2112344;28;31977;-64
2023/10/08 02:15:11;;;;;;;9.65;4.75;;;;;;;-146.25;100.00;52424.97;2104841;28;20159;-64
2023/10/08 02:16:18;;;;;;;10.30;4.65;;;;;;;-146.25;100.00;52394.56;2105267;28;20032;-64
2023/10/08 02:17:20;;;;;;;9.80;4.47;;;;;;;-146.25;100.00;52388.47;2103442;28;31985;-63
2023/10/08 02:18:25;;;;;;;11.05;4.72;;;;;;;-146.25;100.00;52410.78;2104396;28;20143;-65
2023/10/08 02:19:28;;;;;;;7.30;3.83;;;;;;;-146.25;100.00;52396.59;2104113;28;20033;-64
2023/10/08 02:20:30;;;;;;;8.90;4.10;;;;;;;-146.25;100.00;52408.75;2095942;28;30892;-64
2023/10/08 02:21:33;;;;;;;7.65;4.20;;;;;;;-146.25;100.00;52400.63;2104232;28;20179;-63
2023/10/08 02:22:39;;;;;;;8.50;4.30;;;;;;;-146.25;100.00;52378.34;2105314;28;20041;-64
2023/10/08 02:23:43;;;;;;;9.27;4.70;;;;;;;-146.25;100.00;52410.78;2103763;28;22249;-64
2023/10/08 02:24:45;;;;;;;10.65;5.00;;;;;;;-146.25;100.00;52463.50;2104028;28;26811;-64
2023/10/08 02:25:47;;;;;;;9.70;5.03;;;;;;;-146.25;100.00;52408.75;2104189;28;28174;-64
2023/10/08 02:26:54;;;;;;;9.02;4.13;;;;;;;-146.25;100.00;52433.06;2104678;28;30607;-64
2023/10/08 02:27:57;;;;;;;10.85;5.30;;;;;;;-146.25;100.00;52431.06;2095372;28;25869;-64
2023/10/08 02:28:59;;;;;;;10.00;4.35;;;;;;;-146.25;100.00;52414.84;2095994;28;36080;-64
2023/10/08 02:30:06;;;;;;;10.60;5.07;;;;;;;-146.25;100.00;52394.56;2112584;28;20040;-64
2023/10/08 02:31:08;;;;;;;10.75;4.68;;;;;;;-146.25;100.00;52416.84;2104595;28;26882;-64
2023/10/08 02:32:13;;;;;;;10.27;4.90;;;;;;;-146.25;100.00;52402.66;2104638;28;30738;-64
2023/10/08 02:33:15;;;;;;;9.30;4.55;;;;;;;-146.25;100.00;52392.53;2104629;28;26914;-64
2023/10/08 02:34:19;;;;;;;10.20;4.75;;;;;;;-146.25;100.00;52422.94;2104744;28;20902;-64
2023/10/08 02:35:22;;;;;;;10.93;5.13;;;;;;;-146.25;100.00;52412.81;2103849;28;20036;-64
2023/10/08 02:36:24;;;;;;;10.82;5.00;;;;;;;-146.25;100.00;52414.84;2103978;28;28853;-64
2023/10/08 02:37:26;;;;;;;11.77;4.95;;;;;;;-146.25;100.00;52396.59;2103648;28;30467;-64
2023/10/08 02:38:28;;;;;;;10.50;5.00;;;;;;;-146.25;100.00;52404.69;2104596;28;25265;-63
2023/10/08 02:39:31;;;;;;;11.82;5.45;;;;;;;-146.25;100.00;52396.59;2112247;28;25200;-64
2023/10/08 02:40:35;;;;;;;9.75;4.65;;;;;;;-146.25;100.00;52427.00;2103345;28;24384;-64
2023/10/08 02:41:41;;;;;;;9.30;4.57;;;;;;;-146.25;100.00;52447.28;2103318;28;31350;-64
2023/10/08 02:42:47;;;;;;;8.70;4.30;;;;;;;-146.25;100.00;52392.53;2104125;28;33217;-64
2023/10/08 02:43:49;;;;;;;14.75;5.32;;;;;;;-146.25;100.00;52412.81;2103721;28;33850;-63
2023/10/08 02:44:51;;;;;;;11.07;4.85;;;;;;;-146.25;100.00;52441.19;2104447;28;34010;-62
2023/10/08 02:45:55;;;;;;;9.80;4.63;;;;;;;-146.25;100.00;52396.59;2104051;28;25052;-63
2023/10/08 02:46:57;;;;;;;10.98;5.00;;;;;;;-146.25;100.00;52429.03;2103256;28;31779;-63
2023/10/08 02:47:59;;;;;;;11.40;5.40;;;;;;;-146.25;100.00;52396.59;2103391;28;27740;-63
2023/10/08 02:49:03;;;;;;;9.38;4.63;;;;;;;-146.25;100.00;52380.38;2103970;28;29412;-63
2023/10/08 02:50:08;;;;;;;9.68;4.40;;;;;;;-146.25;100.00;52410.78;2104702;28;20037;-64
2023/10/08 02:51:16;;;;;;;8.98;5.00;;;;;;;-146.25;100.00;52416.84;2104105;28;28765;-63
2023/10/08 02:52:18;;;;;;;9.50;4.22;;;;;;;-146.25;100.00;52437.13;2104922;28;31200;-63
2023/10/08 02:53:23;;;;;;;11.45;4.20;;;;;;;-146.25;100.00;52416.84;2106361;28;22550;-64
2023/10/08 02:54:36;;;;;;;11.68;4.10;;;;;;;-146.25;100.00;52416.84;2113782;28;25558;-65
2023/10/08 02:55:44;;;;;;;13.55;4.95;;;;;;;-146.25;100.00;52420.91;2112241;28;20098;-64
2023/10/08 02:56:51;;;;;;;9.23;4.43;;;;;;;-146.25;100.00;52420.91;2106666;28;20047;-63
2023/10/08 02:57:56;;;;;;;10.55;4.30;;;;;;;-146.25;100.00;52431.06;2105058;28;29221;-65
2023/10/08 02:59:00;;;;;;;7.18;3.95;;;;;;;-146.25;100.00;52437.13;2105306;28;25885;-64
2023/10/08 03:00:04;;;;;;;10.35;4.40;;;;;;;-146.25;100.00;52388.47;2113919;28;20088;-64
2023/10/08 03:01:12;;;;;;;8.30;3.90;;;;;;;-146.25;100.00;52424.97;2105220;28;24413;-64
2023/10/08 03:02:18;;;;;;;8.07;3.80;;;;;;;-146.25;100.00;52429.03;2098265;28;20085;-63
2023/10/08 03:03:22;;;;;;;9.48;3.85;;;;;;;-146.25;100.00;52394.56;2097748;28;24257;-63
2023/10/08 03:04:27;;;;;;;9.40;4.15;;;;;;;-146.25;100.00;52390.50;2097532;28;20041;-64
2023/10/08 03:05:35;;;;;;;11.88;3.92;;;;;;;-146.25;100.00;52364.13;2105693;28;26260;-64
2023/10/08 03:06:38;;;;;;;7.85;3.58;;;;;;;-146.25;100.00;52396.59;2105315;28;20938;-64
2023/10/08 03:07:40;;;;;;;10.15;3.92;;;;;;;-146.25;100.00;52394.56;2105729;28;20083;-64
2023/10/08 03:08:42;;;;;;;11.18;4.18;;;;;;;-146.25;100.00;52400.63;2105315;28;32270;-64
2023/10/08 03:09:44;;;;;;;9.90;4.30;;;;;;;-146.25;100.00;52431.06;2104730;28;29463;-64
2023/10/08 03:10:55;;;;;;;8.27;3.30;;;;;;;-146.25;100.00;52445.25;2114355;28;20032;-64
2023/10/08 03:12:07;;;;;;;6.72;3.33;;;;;;;-146.25;100.00;52388.47;2106160;28;20033;-64
2023/10/08 03:13:12;;;;;;;8.10;3.85;;;;;;;-146.25;100.00;52435.09;2106401;28;20091;-63
2023/10/08 03:14:21;;;;;;;7.90;3.47;;;;;;;-146.25;100.00;52443.22;2114515;28;20125;-65
2023/10/08 03:15:30;;;;;;;6.72;3.22;;;;;;;-146.25;100.00;52384.41;2112443;28;25149;-63
2023/10/08 03:16:34;;;;;;;8.02;3.22;;;;;;;-146.25;100.00;52422.94;2106134;28;26145;-64
2023/10/08 03:17:39;;;;;;;8.30;3.78;;;;;;;-146.25;100.00;52420.91;2105891;28;23539;-64
2023/10/08 03:18:49;;;;;;;10.63;3.60;;;;;;;-146.25;100.00;52447.28;2113283;28;26778;-64
2023/10/08 03:19:52;;;;;;;12.52;4.53;;;;;;;-146.25;100.00;52412.81;2105014;28;22104;-63
2023/10/08 03:20:53;;;;;;;10.45;4.38;;;;;;;-146.25;100.00;52408.75;2105144;28;24817;-64
2023/10/08 03:21:56;;;;;;;9.45;3.60;;;;;;;-146.25;100.00;52429.03;2105699;28;20036;-64
2023/10/08 03:22:58;;;;;;;10.95;4.20;;;;;;;-146.25;100.00;52420.91;2105700;28;31897;-64
2023/10/08 03:24:06;;;;;;;8.90;3.38;;;;;;;-146.25;100.00;52443.22;2113555;28;29841;-63
2023/10/08 03:25:16;;;;;;;7.88;3.55;;;;;;;-146.25;100.00;52384.41;2112453;28;26619;-63
2023/10/08 03:26:33;;;;;;;12.95;4.53;;;;;;;-146.25;100.00;52396.59;2105124;28;20086;-63
2023/10/08 03:27:41;;;;;;;7.55;3.60;;;;;;;-146.25;100.00;52410.78;2107506;28;25311;-64
2023/10/08 03:28:43;;;;;;;10.70;3.95;;;;;;;-146.25;100.00;52443.22;2104843;28;31057;-64
2023/10/08 03:29:45;;;;;;;8.27;2.80;;;;;;;-146.25;100.00;52412.81;2105026;28;25416;-64
2023/10/08 03:30:50;;;;;;;9.95;3.33;;;;;;;-146.25;100.00;52422.94;2105821;28;20036;-64
2023/10/08 03:31:54;;;;;;;10.00;3.40;;;;;;;-146.25;100.00;52392.53;2105340;28;20045;-65
2023/10/08 03:33:04;;;;;;;6.15;2.90;;;;;;;-146.25;100.00;52408.75;2113509;28;20041;-64
2023/10/08 03:34:06;;;;;;;7.72;2.90;;;;;;;-146.25;100.00;52420.91;2106149;28;20052;-64
2023/10/08 03:35:11;;;;;;;5.10;2.50;;;;;;;-146.25;100.00;52433.06;2105738;28;28528;-64
2023/10/08 03:36:27;;;;;;;6.28;2.78;;;;;;;-146.25;100.00;52420.91;2104779;28;22474;-64
2023/10/08 03:37:41;;;;;;;5.88;2.67;;;;;;;-146.25;100.00;52418.88;2105166;28;31960;-64
2023/10/08 03:38:50;;;;;;;7.35;2.90;;;;;;;-146.25;100.00;52416.84;2105905;28;21018;-64
2023/10/08 03:40:22;;;;;;;8.15;2.70;;;;;;;-146.25;100.00;52408.75;2104954;28;34478;-64
2023/10/08 03:41:29;;;;;;;8.40;2.58;;;;;;;-146.25;100.00;52424.97;2105297;28;36253;-64
2023/10/08 03:42:34;;;;;;;6.43;2.53;;;;;;;-146.25;100.00;52396.59;2105489;28;38857;-64
2023/10/08 03:43:47;;;;;;;7.22;2.20;;;;;;;-146.25;100.00;52447.28;2106375;28;20021;-64
2023/10/08 03:44:55;;;;;;;7.35;2.60;;;;;;;-146.25;100.00;52410.78;2104962;28;37012;-64
2023/10/08 03:45:59;;;;;;;12.20;2.53;;;;;;;-146.25;100.00;52429.03;2104928;28;33008;-64
2023/10/08 03:47:09;;;;;;;7.25;2.40;;;;;;;-146.25;100.00;52408.75;2105392;28;32276;-63
2023/10/08 03:48:15;;;;;;;8.38;2.67;;;;;;;-146.25;100.00;52431.06;2105742;28;37519;-64
2023/10/08 03:50:40;;;;;;;5.40;2.72;;;;;;;-146.25;100.00;52380.38;2106224;28;20032;-64
2023/10/08 03:51:44;;;;;;;7.53;2.83;;;;;;;-146.25;100.00;52422.94;2105699;28;33426;-64
2023/10/08 03:52:48;;;;;;;5.45;2.22;;;;;;;-146.25;100.00;52443.22;2105089;28;34447;-64
2023/10/08 03:53:59;;;;;;;5.95;2.38;;;;;;;-146.25;100.00;52424.97;2105736;28;34615;-64
2023/10/08 03:55:20;;;;;;;6.13;2.33;;;;;;;-146.25;100.00;52414.84;2113435;28;20117;-64
2023/10/08 03:56:22;;;;;;;6.10;2.50;;;;;;;-146.25;100.00;52431.06;2110717;28;39447;-64
2023/10/08 03:57:41;;;;;;;8.30;2.78;;;;;;;-146.25;100.00;52433.06;2105779;28;25982;-64
2023/10/08 03:58:46;;;;;;;9.18;2.85;;;;;;;-146.25;100.00;52412.81;2105998;28;20049;-64
2023/10/08 03:59:48;;;;;;;4.80;2.00;;;;;;;-146.25;100.00;52406.72;2105187;28;33616;-64
2023/10/08 04:00:54;;;;;;;7.40;3.17;;;;;;;-146.25;100.00;52408.75;2105411;28;30628;-65
2023/10/08 04:02:22;;;;;;;11.70;2.80;;;;;;;-146.25;100.00;52473.63;2105260;28;21042;-63
2023/10/08 04:03:42;;;;;;;7.82;3.03;;;;;;;-146.25;100.00;52402.66;2099266;28;36959;-64
2023/10/08 04:04:51;;;;;;;6.63;3.08;;;;;;;-146.25;100.00;52402.66;2105422;28;35316;-64
2023/10/08 04:06:14;;;;;;;9.50;2.63;;;;;;;-146.25;100.00;52429.03;2105161;28;37719;-64
2023/10/08 04:07:25;;;;;;;7.97;2.05;;;;;;;-146.25;100.00;52435.09;2105500;28;32512;-64
2023/10/08 04:08:55;;;;;;;6.15;2.83;;;;;;;-146.25;100.00;52406.72;2104941;28;35361;-64
2023/10/08 04:11:32;;;;;;;4.22;2.03;;;;;;;-146.25;100.00;52429.03;2105376;28;20037;-64
2023/10/08 04:12:42;;;;;;;6.70;2.53;;;;;;;-146.25;100.00;52414.84;2104954;28;36954;-64
2023/10/08 04:13:48;;;;;;;6.30;2.45;;;;;;;-146.25;100.00;52429.03;2104980;28;35535;-64
2023/10/08 04:14:55;;;;;;;6.43;2.58;;;;;;;-146.25;100.00;52453.34;2105479;28;35287;-63
2023/10/08 04:15:57;;;;;;;10.20;3.17;;;;;;;-146.25;100.00;52433.06;2104552;28;35269;-64
2023/10/08 04:16:59;;;;;;;10.80;3.45;;;;;;;-146.25;100.00;52424.97;2096597;28;37952;-64
2023/10/08 04:18:02;;;;;;;8.90;2.92;;;;;;;-146.25;100.00;52427.00;2096293;28;31719;-64
2023/10/08 04:19:05;;;;;;;12.05;3.45;;;;;;;-146.25;100.00;52406.72;2096202;28;30715;-64
2023/10/08 04:20:30;;;;;;;8.85;2.92;;;;;;;-146.25;100.00;52408.75;2096630;28;34546;-64
2023/10/08 04:21:33;;;;;;;10.38;2.88;;;;;;;-146.25;100.00;52416.84;2097066;28;36246;-65
2023/10/08 04:22:36;;;;;;;8.35;2.80;;;;;;;-146.25;100.00;52398.59;2097733;28;38054;-64
2023/10/08 04:23:40;;;;;;;8.77;3.40;;;;;;;-146.25;100.00;52412.81;2105622;28;20036;-64
2023/10/08 04:24:43;;;;;;;10.10;3.70;;;;;;;-146.25;100.00;52455.38;2104932;28;39019;-63
2023/10/08 04:25:47;;;;;;;7.43;2.97;;;;;;;-146.25;100.00;52398.59;2105008;28;33864;-63
2023/10/08 04:26:50;;;;;;;6.97;2.75;;;;;;;-146.25;100.00;52435.09;2104330;28;20036;-64
2023/10/08 04:27:59;;;;;;;11.85;3.58;;;;;;;-146.25;100.00;52449.31;2096697;28;35226;-65
2023/10/08 04:29:02;;;;;;;7.95;3.42;;;;;;;-146.25;100.00;52416.84;2096329;28;33840;-64
2023/10/08 04:30:05;;;;;;;11.85;3.22;;;;;;;-146.25;100.00;52402.66;2095025;28;32262;-65
2023/10/08 04:31:16;;;;;;;6.13;2.50;;;;;;;-146.25;100.00;52435.09;2096272;28;33537;-64
2023/10/08 04:32:24;;;;;;;4.97;2.65;;;;;;;-146.25;100.00;52420.91;2095678;28;35233;-64
2023/10/08 04:33:33;;;;;;;8.30;2.88;;;;;;;-146.25;100.00;52459.44;2096552;28;32321;-63
2023/10/08 04:34:38;;;;;;;7.45;3.00;;;;;;;-146.25;100.00;52437.13;2096381;28;34404;-64
2023/10/08 04:35:48;;;;;;;7.03;3.13;;;;;;;-146.25;100.00;52429.03;2095969;28;32567;-64
2023/10/08 04:36:54;;;;;;;10.40;3.60;;;;;;;-146.25;100.00;52422.94;2089267;28;36734;-63
2023/10/08 04:37:55;;;;;;;10.10;3.40;;;;;;;-146.25;100.00;52410.78;2096611;28;34808;-64
2023/10/08 04:39:04;;;;;;;12.23;3.40;;;;;;;-146.25;100.00;52424.97;2096447;28;34163;-64
2023/10/08 04:40:15;;;;;;;6.53;3.50;;;;;;;-146.25;100.00;52424.97;2097051;28;33328;-63
2023/10/08 04:41:19;;;;;;;8.18;2.78;;;;;;;-146.25;100.00;52416.84;2096633;28;34708;-64
2023/10/08 04:42:25;;;;;;;9.30;3.65;;;;;;;-146.25;100.00;52443.22;2096801;28;36895;-63
2023/10/08 04:43:30;;;;;;;12.35;3.70;;;;;;;-146.25;100.00;52414.84;2096679;28;34633;-64
2023/10/08 04:44:38;;;;;;;8.40;2.80;;;;;;;-146.25;100.00;52429.03;2097442;28;20706;-64
2023/10/08 04:45:40;;;;;;;10.07;3.42;;;;;;;-146.25;100.00;52429.03;2098097;28;20037;-63
2023/10/08 04:46:46;;;;;;;7.80;2.90;;;;;;;-146.25;100.00;52437.13;2099508;28;36103;-63
2023/10/08 04:47:49;;;;;;;9.38;3.05;;;;;;;-146.25;100.00;52437.13;2104558;28;31806;-62
2023/10/08 04:48:55;;;;;;;8.57;3.70;;;;;;;-146.25;100.00;52437.13;2104997;28;32930;-64
2023/10/08 04:49:57;;;;;;;13.20;3.20;;;;;;;-146.25;100.00;52459.44;2104809;28;38207;-63
2023/10/08 04:50:59;;;;;;;6.95;2.90;;;;;;;-146.25;100.00;52433.06;2103754;28;34303;-64
2023/10/08 04:52:15;;;;;;;7.57;3.33;;;;;;;-146.25;100.00;52414.84;2104707;28;20036;-63
2023/10/08 04:53:17;;;;;;;7.38;3.03;;;;;;;-146.25;100.00;52408.75;2104151;28;33430;-64
2023/10/08 04:54:19;;;;;;;8.60;3.35;;;;;;;-146.25;100.00;52416.84;2104044;28;31774;-63
2023/10/08 04:55:28;;;;;;;10.65;3.05;;;;;;;-146.25;100.00;52418.88;2104322;28;31846;-64
2023/10/08 04:56:33;;;;;;;11.68;3.83;;;;;;;-146.25;100.00;52398.59;2103354;28;36485;-64
2023/10/08 04:57:34;;;;;;;11.45;2.95;;;;;;;-146.25;100.00;52433.06;2103320;28;36732;-63
2023/10/08 04:58:40;;;;;;;9.75;3.05;;;;;;;-146.25;100.00;52416.84;2112006;28;30902;-63
2023/10/08 04:59:43;;;;;;;8.82;2.70;;;;;;;-146.25;100.00;52433.06;2111167;28;36350;-64
2023/10/08 05:00:59;;;;;;;9.43;3.55;;;;;;;-146.25;100.00;52398.59;2095269;28;34505;-63
2023/10/08 05:02:26;;;;;;;7.22;3.25;;;;;;;-146.25;100.00;52422.94;2097823;28;34449;-63
2023/10/08 05:03:43;;;;;;;8.82;3.60;;;;;;;-146.25;100.00;52422.94;2103387;28;32452;-64
2023/10/08 05:08:58;;;;;;;12.50;2.88;;;;;;;-146.25;100.00;52392.53;2071812;28;38318;-63